Time;durP1;ratioP1;P1;durP2;ratioP2;P2;SDS_P1;SDS_P2;PMS_P1;PMS_P2;Temp;Humidity;BMP_temperature;BMP_pressure;BME280_temperature;BME280_humidity;BME280_pressure;Samples;Min_cycle;Max_cycle;Signal;HPM_P1;HPM_P2
2021/12/23 00:00:37;;;;;;;33.25;18.05;;;-2.40;99.90;;;;;;4998719;28;20046;-84
2021/12/23 00:03:04;;;;;;;24.55;17.27;;;-2.40;99.90;;;;;;5000424;28;20053;-82
2021/12/23 00:05:30;;;;;;;27.77;17.17;;;-2.40;99.90;;;;;;4991728;28;20052;-84
2021/12/23 00:07:57;;;;;;;26.60;17.48;;;-2.30;99.90;;;;;;4997438;28;20487;-83
2021/12/23 00:10:23;;;;;;;31.15;19.33;;;-2.40;99.90;;;;;;4995504;28;20045;-82
2021/12/23 00:12:50;;;;;;;29.33;18.20;;;-2.30;99.90;;;;;;4986159;28;20062;-83
2021/12/23 00:15:24;;;;;;;22.27;16.55;;;-2.30;99.90;;;;;;4990602;28;20046;-83
2021/12/23 00:17:57;;;;;;;27.40;18.25;;;-2.30;99.90;;;;;;4995162;28;20062;-83
2021/12/23 00:23:28;;;;;;;29.17;17.60;;;-2.30;99.90;;;;;;4997842;28;20054;-83
2021/12/23 00:25:54;;;;;;;27.83;16.88;;;-2.30;99.90;;;;;;5006722;28;20457;-82
2021/12/23 00:28:21;;;;;;;27.42;16.60;;;-2.30;99.90;;;;;;4994478;28;20072;-83
2021/12/23 00:30:47;;;;;;;25.83;17.70;;;-2.30;99.90;;;;;;4994501;28;20057;-84
2021/12/23 00:33:14;;;;;;;29.10;18.75;;;-2.30;99.90;;;;;;4994399;28;20065;-83
2021/12/23 00:35:40;;;;;;;23.70;16.52;;;-2.20;99.90;;;;;;4988499;28;20054;-83
2021/12/23 00:38:16;;;;;;;27.63;16.38;;;-2.20;99.90;;;;;;4990977;28;20057;-83
2021/12/23 00:40:42;;;;;;;32.03;19.05;;;-2.20;99.90;;;;;;5012190;28;20045;-82
2021/12/23 00:43:09;;;;;;;24.83;16.85;;;-2.20;99.90;;;;;;4997329;28;20049;-83
2021/12/23 00:45:35;;;;;;;28.63;17.05;;;-2.10;99.90;;;;;;4987626;28;20050;-83
2021/12/23 00:48:02;;;;;;;24.90;16.25;;;-2.10;99.90;;;;;;4985373;28;20054;-82
2021/12/23 00:50:28;;;;;;;31.73;18.65;;;-2.10;99.90;;;;;;4996072;28;20516;-84
2021/12/23 00:52:57;;;;;;;29.92;19.48;;;-2.10;99.90;;;;;;4985647;28;20414;-84
2021/12/23 00:55:24;;;;;;;28.45;17.80;;;-2.10;99.90;;;;;;4995981;28;20088;-83
2021/12/23 00:57:50;;;;;;;28.88;18.30;;;-2.10;99.90;;;;;;4992934;28;20054;-82
2021/12/23 01:00:18;;;;;;;29.50;16.48;;;-2.10;99.90;;;;;;4990209;28;20054;-82
2021/12/23 01:02:45;;;;;;;33.55;18.63;;;-2.10;99.90;;;;;;4990794;28;20050;-82
2021/12/23 01:05:12;;;;;;;25.38;16.40;;;-2.10;99.90;;;;;;4988019;28;20042;-83
2021/12/23 01:07:38;;;;;;;28.95;17.63;;;-2.00;99.90;;;;;;4992141;28;20050;-83
2021/12/23 01:10:05;;;;;;;25.90;18.95;;;-2.00;99.90;;;;;;4991360;28;20042;-83
2021/12/23 01:12:38;;;;;;;27.27;18.45;;;-2.10;99.90;;;;;;4988453;28;20058;-82
2021/12/23 01:15:14;;;;;;;26.60;16.05;;;-2.00;99.90;;;;;;4983999;28;20061;-82
2021/12/23 01:17:53;;;;;;;29.48;17.25;;;-2.00;99.90;;;;;;4991144;28;20046;-83
2021/12/23 01:20:25;;;;;;;27.33;16.55;;;-2.00;99.90;;;;;;4990598;28;20057;-82
2021/12/23 01:22:51;;;;;;;22.67;16.45;;;-2.00;99.90;;;;;;4990788;28;20043;-82
2021/12/23 01:25:18;;;;;;;29.05;17.90;;;-2.00;99.90;;;;;;4993510;28;20053;-83
2021/12/23 01:27:44;;;;;;;29.75;16.02;;;-2.00;99.90;;;;;;4986294;28;20045;-82
2021/12/23 01:30:11;;;;;;;29.77;18.00;;;-2.00;99.90;;;;;;4988415;28;20061;-81
2021/12/23 01:32:37;;;;;;;25.92;18.45;;;-2.00;99.90;;;;;;4993439;28;20069;-83
2021/12/23 01:35:04;;;;;;;23.38;16.02;;;-2.00;99.90;;;;;;5002509;28;20477;-83
2021/12/23 01:37:31;;;;;;;28.83;18.33;;;-1.90;99.90;;;;;;4993428;28;20057;-83
2021/12/23 01:39:57;;;;;;;24.58;16.13;;;-1.90;99.90;;;;;;4998356;28;20054;-83
2021/12/23 01:42:24;;;;;;;28.42;17.23;;;-1.90;99.90;;;;;;5001737;28;20045;-82
2021/12/23 01:44:50;;;;;;;26.33;17.48;;;-1.90;99.90;;;;;;4988121;28;20041;-82
2021/12/23 01:47:17;;;;;;;31.10;18.88;;;-1.90;99.90;;;;;;4993843;28;20046;-82
2021/12/23 01:49:43;;;;;;;25.38;16.38;;;-1.90;99.90;;;;;;4991713;28;20073;-83
2021/12/23 01:52:10;;;;;;;27.17;17.90;;;-1.90;99.90;;;;;;4987869;28;20091;-82
2021/12/23 01:54:36;;;;;;;31.60;19.42;;;-1.90;99.90;;;;;;4992853;28;20120;-81
2021/12/23 01:57:03;;;;;;;26.63;18.42;;;-1.80;99.90;;;;;;4991853;28;20412;-83
2021/12/23 01:59:29;;;;;;;28.15;18.38;;;-1.80;99.90;;;;;;4989246;28;20050;-84
2021/12/23 02:01:56;;;;;;;20.48;16.05;;;-1.80;99.90;;;;;;5010583;28;20053;-83
2021/12/23 02:04:22;;;;;;;25.58;17.40;;;-1.80;99.90;;;;;;4993167;28;20049;-83
2021/12/23 02:06:49;;;;;;;24.27;16.60;;;-1.80;99.90;;;;;;4999154;28;20045;-83
2021/12/23 02:09:16;;;;;;;27.10;18.33;;;-1.80;99.90;;;;;;4995316;28;20076;-85
2021/12/23 02:11:42;;;;;;;28.95;17.00;;;-1.70;99.90;;;;;;4986467;28;20077;-83
2021/12/23 02:14:09;;;;;;;20.98;15.48;;;-1.70;99.90;;;;;;4989800;28;20050;-83
2021/12/23 02:16:35;;;;;;;30.65;16.52;;;-1.70;99.90;;;;;;4994092;28;20062;-84
2021/12/23 02:19:02;;;;;;;24.95;16.05;;;-1.60;99.90;;;;;;4993345;28;20050;-84
2021/12/23 02:21:28;;;;;;;24.85;17.23;;;-1.60;99.90;;;;;;4991330;28;20060;-84
2021/12/23 02:23:55;;;;;;;31.42;18.48;;;-1.70;99.90;;;;;;4986650;28;20045;-84
2021/12/23 02:26:21;;;;;;;26.20;18.67;;;-1.60;99.90;;;;;;4992821;28;20428;-84
2021/12/23 02:28:48;;;;;;;29.35;17.17;;;-1.60;99.90;;;;;;4998218;28;20054;-83
2021/12/23 02:31:14;;;;;;;25.98;16.83;;;-1.60;99.90;;;;;;4988266;28;20053;-84
2021/12/23 02:33:41;;;;;;;24.77;16.02;;;-1.60;99.90;;;;;;4988117;28;20042;-84
2021/12/23 02:36:09;;;;;;;26.73;17.60;;;-1.50;99.90;;;;;;4991074;28;20054;-84
2021/12/23 02:38:36;;;;;;;24.60;18.90;;;-1.50;99.90;;;;;;4988318;28;20038;-84
2021/12/23 02:41:02;;;;;;;27.60;18.40;;;-1.60;99.90;;;;;;4991478;28;20057;-82
2021/12/23 02:43:29;;;;;;;26.98;17.77;;;-1.50;99.90;;;;;;4993506;28;20057;-83
2021/12/23 02:45:56;;;;;;;26.80;16.73;;;-1.40;99.90;;;;;;4990985;28;20041;-83
2021/12/23 02:48:22;;;;;;;32.63;19.02;;;-1.30;99.90;;;;;;4993519;28;20060;-82
2021/12/23 02:50:49;;;;;;;25.58;18.10;;;-1.30;99.90;;;;;;4988138;28;20042;-82
2021/12/23 02:53:15;;;;;;;23.35;17.88;;;-1.40;99.90;;;;;;4999364;28;20049;-83
2021/12/23 02:55:42;;;;;;;31.42;17.33;;;-1.30;99.90;;;;;;4988836;28;20057;-83
2021/12/23 02:58:09;;;;;;;31.77;21.48;;;-1.30;99.90;;;;;;4995203;28;20052;-83
2021/12/23 03:00:36;;;;;;;27.88;20.13;;;-1.30;99.90;;;;;;4993031;28;20050;-82
2021/12/23 03:03:02;;;;;;;26.52;18.88;;;-1.20;99.90;;;;;;4989882;28;20676;-82
2021/12/23 03:05:29;;;;;;;31.15;19.65;;;-1.20;99.90;;;;;;4991862;28;20477;-82
2021/12/23 03:07:55;;;;;;;27.30;19.70;;;-1.20;99.90;;;;;;4991429;28;20478;-82
2021/12/23 03:10:22;;;;;;;27.30;18.58;;;-1.10;99.90;;;;;;4989565;28;20046;-82
2021/12/23 03:12:49;;;;;;;27.90;19.73;;;-1.00;99.90;;;;;;4990754;28;20131;-81
2021/12/23 03:15:16;;;;;;;23.23;18.55;;;-1.00;99.90;;;;;;5006687;28;20046;-83
2021/12/23 03:17:42;;;;;;;27.92;18.38;;;-0.90;99.90;;;;;;4980694;28;20046;-82
2021/12/23 03:20:09;;;;;;;25.52;17.90;;;-0.90;99.90;;;;;;4984845;28;20050;-82
2021/12/23 03:22:35;;;;;;;25.80;17.55;;;-0.90;99.90;;;;;;4993837;28;20049;-82
2021/12/23 03:25:02;;;;;;;27.38;18.58;;;-0.90;99.90;;;;;;4987576;28;20048;-82
2021/12/23 03:27:28;;;;;;;26.98;18.13;;;-0.90;99.90;;;;;;4978456;28;20057;-82
2021/12/23 03:29:56;;;;;;;29.50;16.88;;;-0.90;99.90;;;;;;4990863;28;20108;-82
2021/12/23 03:32:23;;;;;;;25.42;17.02;;;-0.90;99.90;;;;;;4993334;28;20053;-82
2021/12/23 03:34:49;;;;;;;25.77;16.95;;;-0.90;99.90;;;;;;4987560;28;20056;-82
2021/12/23 03:37:16;;;;;;;25.45;18.00;;;-0.90;99.90;;;;;;4990760;28;20515;-82
2021/12/23 03:39:42;;;;;;;26.23;15.93;;;-0.90;99.90;;;;;;4992140;28;20060;-82
2021/12/23 03:42:09;;;;;;;26.10;16.75;;;-1.00;99.90;;;;;;4990426;28;20057;-82
2021/12/23 03:44:35;;;;;;;24.65;16.45;;;-0.90;99.90;;;;;;4992899;28;20053;-82
2021/12/23 03:47:02;;;;;;;27.00;17.67;;;-1.00;99.90;;;;;;4981477;28;20046;-82
2021/12/23 03:49:29;;;;;;;27.25;18.15;;;-0.90;99.90;;;;;;4984266;28;20413;-82
2021/12/23 03:51:55;;;;;;;23.92;16.67;;;-1.00;99.90;;;;;;4990999;28;20052;-82
2021/12/23 03:54:22;;;;;;;30.92;17.48;;;-0.90;99.90;;;;;;4990882;28;20057;-82
2021/12/23 03:56:48;;;;;;;29.42;17.63;;;-0.90;99.90;;;;;;4986524;28;20061;-83
2021/12/23 03:59:15;;;;;;;23.73;16.33;;;-1.00;99.90;;;;;;4990465;28;20057;-83
2021/12/23 04:01:41;;;;;;;21.55;16.17;;;-1.00;99.90;;;;;;4990487;28;20058;-82
2021/12/23 04:04:08;;;;;;;20.90;13.82;;;-0.90;99.90;;;;;;4990972;28;20061;-82
2021/12/23 04:06:34;;;;;;;25.38;16.67;;;-1.00;99.90;;;;;;4988935;28;20541;-82
2021/12/23 04:09:01;;;;;;;30.10;17.25;;;-1.00;99.90;;;;;;4993953;28;20057;-82
2021/12/23 04:11:28;;;;;;;29.25;19.05;;;-0.90;99.90;;;;;;4992692;28;20512;-83
2021/12/23 04:13:55;;;;;;;27.25;17.13;;;-1.00;99.90;;;;;;4991031;28;20050;-82
2021/12/23 04:16:21;;;;;;;27.00;17.67;;;-1.00;99.90;;;;;;4989112;28;20046;-83
2021/12/23 04:18:50;;;;;;;26.83;17.20;;;-0.90;99.90;;;;;;4988932;28;20046;-83
2021/12/23 04:21:17;;;;;;;22.48;16.20;;;-0.90;99.90;;;;;;4999361;28;20493;-83
2021/12/23 04:23:43;;;;;;;26.05;16.58;;;-0.90;99.90;;;;;;4991442;28;20050;-83
2021/12/23 04:26:10;;;;;;;27.83;17.13;;;-0.90;99.90;;;;;;4990802;28;20053;-82
2021/12/23 04:28:45;;;;;;;23.90;16.98;;;-0.90;99.90;;;;;;4992147;28;20049;-83
2021/12/23 04:31:11;;;;;;;25.08;17.10;;;-0.90;99.90;;;;;;4996329;28;20148;-82
2021/12/23 04:33:38;;;;;;;25.48;15.70;;;-1.00;99.90;;;;;;4987664;28;20555;-83
2021/12/23 04:36:04;;;;;;;22.52;15.73;;;-0.90;99.90;;;;;;4992012;28;20049;-82
2021/12/23 04:38:31;;;;;;;27.08;16.52;;;-0.90;99.90;;;;;;4991049;28;20050;-82
2021/12/23 04:40:57;;;;;;;24.83;18.02;;;-0.90;99.90;;;;;;4997034;28;20049;-82
2021/12/23 04:43:24;;;;;;;25.67;16.77;;;-0.90;99.90;;;;;;4988777;28;20058;-83
2021/12/23 04:45:50;;;;;;;30.83;17.48;;;-0.90;99.90;;;;;;4996303;28;20046;-83
2021/12/23 04:48:17;;;;;;;24.83;17.92;;;-0.90;99.90;;;;;;4995312;28;20038;-82
2021/12/23 04:50:43;;;;;;;25.25;16.67;;;-0.80;99.90;;;;;;4992340;28;20058;-82
2021/12/23 04:53:10;;;;;;;26.05;16.67;;;-0.80;99.90;;;;;;4982923;28;20107;-82
2021/12/23 04:55:36;;;;;;;27.40;17.65;;;-0.80;99.90;;;;;;4990472;28;20053;-82
2021/12/23 04:58:03;;;;;;;24.98;17.80;;;-0.80;99.90;;;;;;4994208;28;20057;-82
2021/12/23 05:00:29;;;;;;;30.17;18.13;;;-0.90;99.90;;;;;;4985556;28;20057;-82
2021/12/23 05:02:56;;;;;;;23.63;18.95;;;-0.80;99.90;;;;;;4988790;28;20053;-82
2021/12/23 05:05:23;;;;;;;24.15;15.75;;;-0.80;99.90;;;;;;4995641;28;20042;-82
2021/12/23 05:07:49;;;;;;;25.88;17.45;;;-0.80;99.90;;;;;;4996314;28;20054;-82
2021/12/23 05:10:16;;;;;;;25.20;16.75;;;-0.80;99.90;;;;;;4996446;28;20077;-82
2021/12/23 05:12:45;;;;;;;32.83;18.23;;;-0.80;99.90;;;;;;4999072;28;20881;-82
2021/12/23 05:15:11;;;;;;;23.98;16.13;;;-0.80;99.90;;;;;;5002919;28;20049;-82
2021/12/23 05:17:38;;;;;;;29.33;17.80;;;-0.80;99.90;;;;;;4995196;28;20044;-81
2021/12/23 05:20:05;;;;;;;28.38;17.80;;;-0.80;99.90;;;;;;4994518;28;20050;-82
2021/12/23 05:22:31;;;;;;;25.00;17.98;;;-0.80;99.90;;;;;;4997754;28;20049;-82
2021/12/23 05:24:58;;;;;;;24.88;16.77;;;-0.80;99.90;;;;;;4990704;28;20065;-82
2021/12/23 05:27:24;;;;;;;25.90;18.88;;;-0.80;99.90;;;;;;4994587;28;20056;-82
2021/12/23 05:29:51;;;;;;;23.60;15.70;;;-0.70;99.90;;;;;;4990555;28;20054;-81
2021/12/23 05:32:17;;;;;;;26.67;18.02;;;-0.80;99.90;;;;;;4988396;28;20262;-82
2021/12/23 05:34:44;;;;;;;27.70;18.25;;;-0.80;99.90;;;;;;4996761;28;20054;-83
2021/12/23 05:37:10;;;;;;;22.20;17.00;;;-0.80;99.90;;;;;;4984642;28;20409;-82
2021/12/23 05:39:37;;;;;;;24.52;18.38;;;-0.70;99.90;;;;;;4995662;28;20057;-82
2021/12/23 05:42:03;;;;;;;27.33;19.20;;;-0.80;99.90;;;;;;4989782;28;20050;-82
2021/12/23 05:44:31;;;;;;;26.63;17.88;;;-0.80;99.90;;;;;;4985329;28;20054;-82
2021/12/23 05:46:57;;;;;;;23.60;18.17;;;-0.70;99.90;;;;;;4988827;28;20117;-82
2021/12/23 05:49:24;;;;;;;31.05;18.23;;;-0.70;99.90;;;;;;4994481;28;20405;-80
2021/12/23 05:51:50;;;;;;;32.55;18.98;;;-0.70;99.90;;;;;;4994009;28;20408;-82
2021/12/23 05:54:17;;;;;;;22.75;16.95;;;-0.70;99.90;;;;;;4988383;28;20234;-82
2021/12/23 05:56:43;;;;;;;28.92;18.40;;;-0.70;99.90;;;;;;4995397;28;20048;-83
2021/12/23 05:59:10;;;;;;;28.33;19.20;;;-0.70;99.90;;;;;;5010504;28;20057;-82
2021/12/23 06:01:36;;;;;;;28.20;19.27;;;-0.70;99.90;;;;;;4992147;28;20046;-82
2021/12/23 06:04:03;;;;;;;26.38;17.38;;;-0.70;99.90;;;;;;4990543;28;20061;-81
2021/12/23 06:06:29;;;;;;;24.73;17.15;;;-0.70;99.90;;;;;;4992951;28;20076;-82
2021/12/23 06:08:56;;;;;;;27.50;18.73;;;-0.70;99.90;;;;;;4989376;28;20501;-81
2021/12/23 06:11:22;;;;;;;25.65;18.20;;;-0.70;99.90;;;;;;4992967;28;20477;-81
2021/12/23 06:13:49;;;;;;;26.23;18.27;;;-0.70;99.90;;;;;;4994550;28;20064;-81
2021/12/23 06:16:16;;;;;;;25.35;17.95;;;-0.70;99.90;;;;;;4991010;28;20504;-81
2021/12/23 06:18:43;;;;;;;27.65;18.00;;;-0.70;99.90;;;;;;4993790;28;20050;-81
2021/12/23 06:21:09;;;;;;;29.10;17.92;;;-0.70;99.90;;;;;;4992238;28;20477;-84
2021/12/23 06:23:36;;;;;;;33.55;19.40;;;-0.70;99.90;;;;;;5009541;28;20400;-81
2021/12/23 06:26:02;;;;;;;29.40;19.85;;;-0.60;99.90;;;;;;4992678;28;20042;-81
2021/12/23 06:28:29;;;;;;;26.25;16.85;;;-0.60;99.90;;;;;;4991904;28;20046;-81
2021/12/23 06:30:55;;;;;;;22.73;17.40;;;-0.60;99.90;;;;;;5009741;28;20066;-80
2021/12/23 06:33:22;;;;;;;30.17;18.67;;;-0.60;99.90;;;;;;4989742;28;20078;-81
2021/12/23 06:35:48;;;;;;;24.25;17.40;;;-0.70;99.90;;;;;;4994624;28;20060;-83
2021/12/23 06:38:15;;;;;;;26.33;17.33;;;-0.60;99.90;;;;;;4992505;28;20053;-80
2021/12/23 06:40:42;;;;;;;27.33;19.10;;;-0.60;99.90;;;;;;4993311;28;20042;-81
2021/12/23 06:43:08;;;;;;;29.80;19.75;;;-0.60;99.90;;;;;;4991710;28;20416;-81
2021/12/23 06:45:35;;;;;;;28.63;19.35;;;-0.60;99.90;;;;;;4992695;28;20045;-81
2021/12/23 06:48:01;;;;;;;23.83;16.65;;;-0.60;99.90;;;;;;5009468;28;20053;-81
2021/12/23 06:50:28;;;;;;;28.90;19.10;;;-0.70;99.90;;;;;;4992344;28;20502;-81
2021/12/23 06:52:55;;;;;;;27.15;18.80;;;-0.60;99.90;;;;;;4991862;28;20504;-81
2021/12/23 06:55:21;;;;;;;23.60;17.45;;;-0.60;99.90;;;;;;4991315;28;20053;-81
2021/12/23 06:57:53;;;;;;;31.27;19.38;;;-0.60;99.90;;;;;;4992559;28;20054;-81
2021/12/23 07:00:19;;;;;;;27.33;19.45;;;-0.60;99.90;;;;;;4993321;28;20058;-81
2021/12/23 07:02:46;;;;;;;27.02;18.63;;;-0.60;99.90;;;;;;4990290;28;20045;-81
2021/12/23 07:05:13;;;;;;;24.52;17.35;;;-0.60;99.90;;;;;;5009896;28;20120;-81
2021/12/23 07:07:52;;;;;;;26.08;17.67;;;-0.60;99.90;;;;;;4992447;28;20045;-81
2021/12/23 07:10:18;;;;;;;25.40;19.10;;;-0.60;99.90;;;;;;4991009;28;20132;-81
2021/12/23 07:12:45;;;;;;;29.52;19.42;;;-0.60;99.90;;;;;;4991622;28;20042;-81
2021/12/23 07:15:11;;;;;;;31.42;19.45;;;-0.60;99.90;;;;;;4990946;28;20061;-81
2021/12/23 07:17:38;;;;;;;24.20;19.20;;;-0.60;99.90;;;;;;4990598;28;20050;-82
2021/12/23 07:20:05;;;;;;;26.35;19.17;;;-0.60;99.90;;;;;;4989784;28;20965;-82
2021/12/23 07:22:32;;;;;;;30.77;19.90;;;-0.50;99.90;;;;;;4992035;28;20096;-82
2021/12/23 07:24:59;;;;;;;37.95;20.10;;;-0.50;99.90;;;;;;5009036;28;20056;-82
2021/12/23 07:27:25;;;;;;;28.85;20.40;;;-0.50;99.90;;;;;;4992668;28;20065;-82
2021/12/23 07:29:52;;;;;;;29.88;19.95;;;-0.50;99.90;;;;;;5009695;28;20054;-82
2021/12/23 07:32:18;;;;;;;30.63;20.02;;;-0.40;99.90;;;;;;4991270;28;20510;-82
2021/12/23 07:34:45;;;;;;;28.90;17.95;;;-0.30;99.90;;;;;;4992813;28;20042;-82
2021/12/23 07:37:11;;;;;;;27.20;18.52;;;-0.30;99.90;;;;;;4990758;28;20050;-82
2021/12/23 07:39:38;;;;;;;29.38;18.70;;;-0.30;99.90;;;;;;4991907;28;20045;-82
2021/12/23 07:42:06;;;;;;;33.60;21.63;;;-0.20;99.90;;;;;;4991534;28;20064;-82
2021/12/23 07:44:32;;;;;;;33.15;20.08;;;-0.20;99.90;;;;;;5009945;28;20045;-81
2021/12/23 07:46:59;;;;;;;38.70;21.05;;;-0.20;99.90;;;;;;4991348;28;20060;-81
2021/12/23 07:49:27;;;;;;;31.45;20.48;;;-0.20;99.90;;;;;;4992849;28;20038;-81
2021/12/23 07:51:54;;;;;;;35.17;22.02;;;-0.20;99.90;;;;;;4989067;28;20086;-81
2021/12/23 07:54:20;;;;;;;35.38;19.92;;;-0.20;99.90;;;;;;4990126;28;20061;-81
2021/12/23 07:56:47;;;;;;;33.97;23.00;;;-0.10;99.90;;;;;;4992160;28;20046;-81
2021/12/23 07:59:14;;;;;;;35.72;21.77;;;-0.10;99.90;;;;;;4988354;28;20041;-81
2021/12/23 08:01:40;;;;;;;32.97;21.40;;;-0.10;99.90;;;;;;4989748;28;20058;-81
2021/12/23 08:04:07;;;;;;;38.58;23.67;;;-0.10;99.90;;;;;;4992428;28;20046;-81
2021/12/23 08:06:33;;;;;;;31.67;22.65;;;-0.10;99.90;;;;;;4992955;28;20582;-81
2021/12/23 08:09:00;;;;;;;36.17;20.30;;;0.00;99.90;;;;;;4991873;28;20060;-81
2021/12/23 08:11:26;;;;;;;38.47;24.30;;;0.00;99.90;;;;;;4988989;28;20408;-81
2021/12/23 08:13:53;;;;;;;39.55;23.08;;;0.00;99.90;;;;;;4993942;28;20499;-82
2021/12/23 08:16:19;;;;;;;37.90;24.00;;;0.00;99.90;;;;;;4994603;28;20049;-82
2021/12/23 08:18:46;;;;;;;38.20;23.00;;;-0.10;99.90;;;;;;5012431;28;20167;-82
2021/12/23 08:21:12;;;;;;;35.78;22.73;;;0.00;99.90;;;;;;4993342;28;20061;-82
2021/12/23 08:23:39;;;;;;;40.55;24.85;;;0.00;99.90;;;;;;4995442;28;20046;-83
2021/12/23 08:26:11;;;;;;;41.15;24.15;;;0.00;99.90;;;;;;4995842;28;20046;-83
2021/12/23 08:28:38;;;;;;;38.33;23.90;;;0.00;99.90;;;;;;4996469;28;20041;-82
2021/12/23 08:31:04;;;;;;;36.35;22.88;;;0.10;99.90;;;;;;4994469;28;20465;-83
2021/12/23 08:33:31;;;;;;;46.42;24.50;;;0.10;99.90;;;;;;4986497;28;20475;-83
2021/12/23 08:35:57;;;;;;;36.15;23.95;;;0.00;99.90;;;;;;4991261;28;20054;-83
2021/12/23 08:38:24;;;;;;;38.00;24.20;;;0.00;99.90;;;;;;4986695;28;20054;-83
2021/12/23 08:40:51;;;;;;;45.38;26.13;;;0.00;99.90;;;;;;4986722;28;20060;-83
2021/12/23 08:43:18;;;;;;;36.35;23.38;;;0.00;99.90;;;;;;4988563;28;20060;-82
2021/12/23 08:45:44;;;;;;;37.25;24.45;;;0.00;99.90;;;;;;4990998;28;20042;-83
2021/12/23 08:48:11;;;;;;;42.22;26.27;;;0.00;99.90;;;;;;4995009;28;20053;-83
2021/12/23 08:50:37;;;;;;;40.70;23.95;;;0.00;99.90;;;;;;4993242;28;20049;-82
2021/12/23 08:53:04;;;;;;;39.55;24.88;;;0.00;99.90;;;;;;4988626;28;20045;-83
2021/12/23 08:55:31;;;;;;;34.60;24.08;;;0.00;99.90;;;;;;4983667;28;20093;-82
2021/12/23 08:57:58;;;;;;;41.17;26.67;;;0.00;99.90;;;;;;4991180;28;20052;-82
2021/12/23 09:00:26;;;;;;;37.22;24.80;;;0.00;99.90;;;;;;4978646;28;20054;-83
2021/12/23 09:02:52;;;;;;;38.78;25.88;;;0.00;99.90;;;;;;4980410;28;20046;-82
2021/12/23 09:05:19;;;;;;;39.60;25.90;;;0.00;99.90;;;;;;4985127;28;20050;-83
2021/12/23 09:07:45;;;;;;;38.35;24.00;;;0.00;99.90;;;;;;4986482;28;20060;-82
2021/12/23 09:10:12;;;;;;;42.22;26.83;;;0.00;99.90;;;;;;4982606;28;20054;-82
2021/12/23 09:12:39;;;;;;;41.80;24.15;;;0.00;99.90;;;;;;4987433;28;20050;-82
2021/12/23 09:15:05;;;;;;;40.75;24.25;;;0.00;99.90;;;;;;4989388;28;20049;-82
2021/12/23 09:17:32;;;;;;;36.83;24.90;;;0.00;99.90;;;;;;4988189;28;20061;-82
2021/12/23 09:19:58;;;;;;;41.35;25.88;;;0.10;99.90;;;;;;4991546;28;20070;-82
2021/12/23 09:22:25;;;;;;;43.10;24.48;;;0.00;99.90;;;;;;5004646;28;20050;-82
2021/12/23 09:24:56;;;;;;;42.13;25.63;;;0.00;99.90;;;;;;4992121;28;20060;-83
2021/12/23 09:27:30;;;;;;;37.42;23.92;;;0.00;99.90;;;;;;4982670;28;20050;-82
2021/12/23 09:32:52;;;;;;;39.28;24.80;;;0.00;99.90;;;;;;4989598;28;20057;-82
2021/12/23 09:35:18;;;;;;;39.10;23.90;;;0.00;99.90;;;;;;4993823;28;20596;-82
2021/12/23 09:37:45;;;;;;;41.30;26.85;;;0.00;99.90;;;;;;4993334;28;20061;-81
2021/12/23 09:40:11;;;;;;;38.97;23.80;;;0.00;99.90;;;;;;4985052;28;20497;-83
2021/12/23 09:42:38;;;;;;;39.78;25.67;;;0.00;99.90;;;;;;4991767;28;20065;-83
2021/12/23 09:45:05;;;;;;;43.53;27.50;;;0.00;99.90;;;;;;4991951;28;20503;-83
2021/12/23 09:47:32;;;;;;;35.17;24.90;;;0.00;99.90;;;;;;4990017;28;20050;-83
2021/12/23 09:49:58;;;;;;;46.28;26.90;;;0.00;99.90;;;;;;4991243;28;20049;-83
2021/12/23 09:52:25;;;;;;;35.75;23.85;;;0.00;99.90;;;;;;4993594;28;20049;-83
2021/12/23 09:54:51;;;;;;;43.60;26.23;;;0.00;99.90;;;;;;4995238;28;20069;-83
2021/12/23 09:57:18;;;;;;;42.78;26.15;;;0.00;99.90;;;;;;4988100;28;20508;-83
2021/12/23 09:59:44;;;;;;;41.08;25.08;;;0.00;99.90;;;;;;4982129;28;20476;-83
2021/12/23 10:02:11;;;;;;;41.97;26.13;;;0.00;99.90;;;;;;4979320;28;20076;-83
2021/12/23 10:04:37;;;;;;;42.75;26.50;;;0.00;99.90;;;;;;4989360;28;20054;-82
2021/12/23 10:07:04;;;;;;;46.22;28.15;;;0.10;99.90;;;;;;4983549;28;20386;-84
2021/12/23 10:09:42;;;;;;;46.78;26.67;;;0.00;99.90;;;;;;4989223;28;20855;-81
2021/12/23 10:31:42;;;;;;;48.47;31.85;;;0.10;99.90;;;;;;4992954;28;20405;-81
2021/12/23 10:37:14;;;;;;;44.40;30.58;;;0.00;99.90;;;;;;4985324;28;20050;-81
2021/12/23 10:39:43;;;;;;;47.78;30.70;;;0.00;99.90;;;;;;4993123;28;20092;-81
2021/12/23 10:42:09;;;;;;;58.33;33.88;;;0.00;99.90;;;;;;4985799;28;20062;-81
2021/12/23 10:44:36;;;;;;;46.88;31.23;;;0.00;99.90;;;;;;5005365;28;20409;-83
2021/12/23 10:47:02;;;;;;;55.20;30.88;;;0.00;99.90;;;;;;4988267;28;20046;-83
2021/12/23 10:49:32;;;;;;;45.22;28.67;;;0.00;99.90;;;;;;4988191;28;20090;-82
2021/12/23 10:52:02;;;;;;;54.67;32.88;;;0.00;99.90;;;;;;4980633;28;20074;-81
2021/12/23 11:00:06;;;;;;;56.70;32.72;;;0.00;99.90;;;;;;4982371;28;20551;-81
2021/12/23 11:02:36;;;;;;;56.45;34.17;;;0.00;99.90;;;;;;5007052;28;20481;-80
2021/12/23 11:05:09;;;;;;;54.97;35.53;;;0.00;99.90;;;;;;5008971;28;20085;-80
2021/12/23 11:07:35;;;;;;;54.50;34.70;;;0.00;99.90;;;;;;4985549;28;20100;-80
2021/12/23 11:10:15;;;;;;;53.97;34.20;;;0.00;99.90;;;;;;5003987;28;20053;-81
2021/12/23 11:29:44;;;;;;;57.00;35.38;;;0.00;99.90;;;;;;5004597;28;20492;-79
2021/12/23 11:37:39;;;;;;;59.38;35.08;;;0.00;99.90;;;;;;4987103;28;20092;-81
2021/12/23 11:40:08;;;;;;;61.45;36.70;;;0.00;99.90;;;;;;4988899;28;20138;-81
2021/12/23 11:42:49;;;;;;;61.05;34.38;;;0.00;99.90;;;;;;4991048;28;20046;-81
2021/12/23 11:45:15;;;;;;;68.13;36.85;;;0.00;99.90;;;;;;4991987;28;20042;-81
2021/12/23 11:47:42;;;;;;;54.97;34.45;;;0.00;99.90;;;;;;4991175;28;20053;-81
2021/12/23 11:50:18;;;;;;;62.03;33.88;;;0.00;99.90;;;;;;4994346;28;20053;-80
2021/12/23 11:52:44;;;;;;;55.08;33.60;;;0.00;99.90;;;;;;4994229;28;20046;-80
2021/12/23 11:55:11;;;;;;;66.32;35.28;;;0.00;99.90;;;;;;4994842;28;20057;-81
2021/12/23 11:57:40;;;;;;;61.55;37.10;;;0.00;99.90;;;;;;4994951;28;20053;-80
2021/12/23 12:00:15;;;;;;;56.45;35.17;;;0.00;99.90;;;;;;4995924;28;20124;-80
2021/12/23 12:02:41;;;;;;;64.22;36.90;;;0.00;99.90;;;;;;4996041;28;20054;-80
2021/12/23 12:05:09;;;;;;;70.60;38.00;;;0.00;99.90;;;;;;4994253;28;20057;-80
2021/12/23 12:07:35;;;;;;;59.42;36.83;;;0.00;99.90;;;;;;4994885;28;20061;-81
2021/12/23 12:10:02;;;;;;;65.97;38.60;;;0.00;99.90;;;;;;4993337;28;20042;-80
2021/12/23 12:12:28;;;;;;;58.72;34.70;;;0.00;99.90;;;;;;5014083;28;20050;-80
2021/12/23 12:14:55;;;;;;;63.00;36.83;;;0.10;99.90;;;;;;4995871;28;20050;-80
2021/12/23 12:17:22;;;;;;;66.47;37.38;;;0.00;99.90;;;;;;4991276;28;20080;-79
2021/12/23 12:19:48;;;;;;;67.85;36.63;;;0.10;99.90;;;;;;4991384;28;20579;-80
2021/12/23 12:22:15;;;;;;;71.70;36.90;;;0.10;99.90;;;;;;4986728;28;20405;-80
2021/12/23 12:24:41;;;;;;;58.45;37.20;;;0.10;99.90;;;;;;4989703;28;20058;-80
2021/12/23 12:27:08;;;;;;;63.53;38.10;;;0.10;99.90;;;;;;5005954;28;20050;-81
2021/12/23 12:29:35;;;;;;;62.47;36.15;;;0.10;99.90;;;;;;4995598;28;20061;-81
2021/12/23 12:32:01;;;;;;;67.38;37.42;;;0.10;99.90;;;;;;4991512;28;20104;-81
2021/12/23 12:34:28;;;;;;;55.67;35.67;;;0.10;99.90;;;;;;4992244;28;21100;-81
2021/12/23 12:36:54;;;;;;;65.40;37.70;;;0.10;99.90;;;;;;5004581;28;20046;-81
2021/12/23 12:39:24;;;;;;;60.22;35.72;;;0.10;99.90;;;;;;4981780;28;20063;-80
2021/12/23 12:41:51;;;;;;;61.45;37.35;;;0.10;99.90;;;;;;4993145;28;20517;-80
2021/12/23 12:44:23;;;;;;;68.38;38.17;;;0.10;99.90;;;;;;4986193;28;20134;-81
2021/12/23 12:46:55;;;;;;;66.47;37.83;;;0.20;99.90;;;;;;4990381;28;20049;-80
2021/12/23 12:49:25;;;;;;;58.25;37.60;;;0.20;99.90;;;;;;4984728;28;20060;-80
2021/12/23 12:51:51;;;;;;;69.43;37.10;;;0.10;99.90;;;;;;4981809;28;20049;-80
2021/12/23 12:54:18;;;;;;;70.78;39.72;;;0.10;99.90;;;;;;4990177;28;20069;-80
2021/12/23 12:56:45;;;;;;;64.38;38.03;;;0.20;99.90;;;;;;4988411;28;20124;-81
2021/12/23 12:59:11;;;;;;;69.43;39.05;;;0.20;99.90;;;;;;4986409;28;20080;-80
2021/12/23 13:01:38;;;;;;;60.20;35.08;;;0.20;99.90;;;;;;4987679;28;21169;-80
2021/12/23 13:04:05;;;;;;;74.55;39.40;;;0.20;99.90;;;;;;4986458;28;20058;-80
2021/12/23 13:06:32;;;;;;;61.17;37.35;;;0.20;99.90;;;;;;4989157;28;20405;-80
2021/12/23 13:08:58;;;;;;;66.15;40.30;;;0.30;99.90;;;;;;4987661;28;20045;-81
2021/12/23 13:11:26;;;;;;;65.95;37.72;;;0.20;99.90;;;;;;4981979;28;20060;-80
2021/12/23 13:14:00;;;;;;;69.78;38.80;;;0.20;99.90;;;;;;4993082;28;20060;-80
2021/12/23 13:16:27;;;;;;;62.08;37.30;;;0.20;99.90;;;;;;4991927;28;20046;-80
2021/12/23 13:18:53;;;;;;;70.80;37.38;;;0.20;99.90;;;;;;4993372;28;20050;-80
2021/12/23 13:21:21;;;;;;;55.67;35.30;;;0.30;99.90;;;;;;4993918;28;20041;-80
2021/12/23 13:23:48;;;;;;;72.93;38.55;;;0.30;99.90;;;;;;4991217;28;20053;-81
2021/12/23 13:26:14;;;;;;;75.38;38.88;;;0.30;99.90;;;;;;5007420;28;20045;-80